Carbon Hill, Ohio
Current Conditions -  °F | °C
As of 4:15 PM on Saturday 22 Nov 2014 (Local Time) from KUNI Reporting Station
Overcast Overcast  
Wind Chill: 55°   Ceiling: 10000
Heat Index: 55°   Visibility: 10mi
Dew Point: 30°   Wind: 5mph
Humidity: 38%   Direction: 190°S
Pressure: 30.15"   Gusts: NA
Location:  39.5°N, 82.24°W
Report Text: KUNI 222115Z AUTO 19004KT 10SM OVC100 13/M01 A3015 RMK AO2 T01281013
Loading
Personal Weather Stations






























Interactive Weather Map New forecast layout! Learn more

10-Day Weather Forecast

Advertisements
Track Severe Weather on mobile